Amador Station, California
Current Conditions -  °F | °C
As of 1:55 PM on Saturday 25 Oct 2014 (Local Time) from KPVF Reporting Station
Broken Clouds Broken Clouds  
Wind Chill: 10°   Ceiling: 7000
Heat Index: 10°   Visibility: 10mi
Dew Point: 10°   Wind: 9mph
Humidity: 100%   Direction: 120°ESE
Pressure: 30.13"   Gusts: NA
Location:  38.5644°N, 120.32°W
Report Text: KPVF 252055Z AUTO 12008KT 10SM FEW004 SCT029 BKN070 10/10 A3013 RMK AO1
Loading
Personal Weather Stations






























Interactive Weather Map
Tropical Storm Tracking
New forecast layout! Learn more

10-Day Weather Forecast

Advertisements
Track Severe Weather on mobile